sensor_id;sensor_type;location;lat;lon;timestamp;P1;durP1;ratioP1;P2;durP2;ratioP2
15996;SDS011;8103;51.340;12.326;2022-08-03T00:01:48;7.13;;;5.55;;
15996;SDS011;8103;51.340;12.326;2022-08-03T00:04:15;5.68;;;4.93;;
15996;SDS011;8103;51.340;12.326;2022-08-03T00:06:42;6.63;;;4.82;;
15996;SDS011;8103;51.340;12.326;2022-08-03T00:09:09;5.00;;;4.35;;
15996;SDS011;8103;51.340;12.326;2022-08-03T00:11:37;6.55;;;4.97;;
15996;SDS011;8103;51.340;12.326;2022-08-03T00:14:04;5.35;;;4.80;;
15996;SDS011;8103;51.340;12.326;2022-08-03T00:16:32;9.80;;;6.57;;
15996;SDS011;8103;51.340;12.326;2022-08-03T00:18:59;6.55;;;4.80;;
15996;SDS011;8103;51.340;12.326;2022-08-03T00:21:27;5.75;;;5.15;;
15996;SDS011;8103;51.340;12.326;2022-08-03T00:23:55;6.50;;;4.70;;
15996;SDS011;8103;51.340;12.326;2022-08-03T00:26:22;5.72;;;4.07;;
15996;SDS011;8103;51.340;12.326;2022-08-03T00:28:51;5.80;;;4.70;;
15996;SDS011;8103;51.340;12.326;2022-08-03T00:31:18;5.57;;;4.15;;
15996;SDS011;8103;51.340;12.326;2022-08-03T00:33:48;6.05;;;4.40;;
15996;SDS011;8103;51.340;12.326;2022-08-03T00:36:23;4.18;;;3.78;;
15996;SDS011;8103;51.340;12.326;2022-08-03T00:38:50;5.18;;;3.80;;
15996;SDS011;8103;51.340;12.326;2022-08-03T00:41:17;4.45;;;3.95;;
15996;SDS011;8103;51.340;12.326;2022-08-03T00:43:44;5.68;;;4.00;;
15996;SDS011;8103;51.340;12.326;2022-08-03T00:46:12;4.90;;;4.43;;
15996;SDS011;8103;51.340;12.326;2022-08-03T00:48:45;5.60;;;3.97;;
15996;SDS011;8103;51.340;12.326;2022-08-03T00:51:12;5.07;;;4.57;;
15996;SDS011;8103;51.340;12.326;2022-08-03T00:53:39;6.35;;;4.15;;
15996;SDS011;8103;51.340;12.326;2022-08-03T00:56:11;4.80;;;3.80;;
15996;SDS011;8103;51.340;12.326;2022-08-03T00:58:42;4.20;;;3.80;;
15996;SDS011;8103;51.340;12.326;2022-08-03T01:01:11;4.32;;;3.88;;
15996;SDS011;8103;51.340;12.326;2022-08-03T01:03:38;4.25;;;3.85;;
15996;SDS011;8103;51.340;12.326;2022-08-03T01:06:19;5.70;;;4.35;;
15996;SDS011;8103;51.340;12.326;2022-08-03T01:09:02;5.30;;;4.80;;
15996;SDS011;8103;51.340;12.326;2022-08-03T01:14:31;5.07;;;4.50;;
15996;SDS011;8103;51.340;12.326;2022-08-03T01:20:08;5.93;;;3.80;;
15996;SDS011;8103;51.340;12.326;2022-08-03T01:22:46;3.80;;;3.47;;
15996;SDS011;8103;51.340;12.326;2022-08-03T01:31:18;4.43;;;4.03;;
15996;SDS011;8103;51.340;12.326;2022-08-03T01:33:51;4.32;;;3.83;;
15996;SDS011;8103;51.340;12.326;2022-08-03T01:36:37;4.72;;;3.65;;
15996;SDS011;8103;51.340;12.326;2022-08-03T01:39:08;4.63;;;3.78;;
15996;SDS011;8103;51.340;12.326;2022-08-03T01:41:41;6.68;;;3.63;;
15996;SDS011;8103;51.340;12.326;2022-08-03T01:44:14;4.40;;;3.90;;
15996;SDS011;8103;51.340;12.326;2022-08-03T01:46:56;5.15;;;3.30;;
15996;SDS011;8103;51.340;12.326;2022-08-03T01:49:24;4.93;;;3.72;;
15996;SDS011;8103;51.340;12.326;2022-08-03T01:51:54;3.75;;;3.35;;
15996;SDS011;8103;51.340;12.326;2022-08-03T01:54:31;3.20;;;2.90;;
15996;SDS011;8103;51.340;12.326;2022-08-03T01:57:02;4.38;;;3.97;;
15996;SDS011;8103;51.340;12.326;2022-08-03T01:59:29;4.03;;;3.72;;
15996;SDS011;8103;51.340;12.326;2022-08-03T02:01:59;5.57;;;3.50;;
15996;SDS011;8103;51.340;12.326;2022-08-03T02:04:41;4.70;;;3.65;;
15996;SDS011;8103;51.340;12.326;2022-08-03T02:07:09;4.13;;;3.47;;
15996;SDS011;8103;51.340;12.326;2022-08-03T02:09:38;3.40;;;2.95;;
15996;SDS011;8103;51.340;12.326;2022-08-03T02:12:12;6.40;;;3.88;;
15996;SDS011;8103;51.340;12.326;2022-08-03T02:14:40;5.50;;;4.13;;
15996;SDS011;8103;51.340;12.326;2022-08-03T02:17:09;3.88;;;3.47;;
15996;SDS011;8103;51.340;12.326;2022-08-03T02:19:37;4.78;;;3.72;;
15996;SDS011;8103;51.340;12.326;2022-08-03T02:22:07;3.80;;;3.30;;
15996;SDS011;8103;51.340;12.326;2022-08-03T02:24:36;4.88;;;4.25;;
15996;SDS011;8103;51.340;12.326;2022-08-03T02:27:04;5.10;;;4.13;;
15996;SDS011;8103;51.340;12.326;2022-08-03T02:29:48;4.43;;;4.03;;
15996;SDS011;8103;51.340;12.326;2022-08-03T02:32:31;7.18;;;5.72;;
15996;SDS011;8103;51.340;12.326;2022-08-03T02:35:02;5.07;;;4.63;;
15996;SDS011;8103;51.340;12.326;2022-08-03T02:37:37;4.40;;;4.00;;
15996;SDS011;8103;51.340;12.326;2022-08-03T02:40:10;8.00;;;4.28;;
15996;SDS011;8103;51.340;12.326;2022-08-03T02:42:38;4.65;;;4.03;;
15996;SDS011;8103;51.340;12.326;2022-08-03T02:45:08;6.10;;;4.13;;
15996;SDS011;8103;51.340;12.326;2022-08-03T02:47:40;5.75;;;4.55;;
15996;SDS011;8103;51.340;12.326;2022-08-03T02:50:17;9.35;;;4.50;;
15996;SDS011;8103;51.340;12.326;2022-08-03T02:52:45;8.10;;;5.40;;
15996;SDS011;8103;51.340;12.326;2022-08-03T02:55:13;5.88;;;4.50;;
15996;SDS011;8103;51.340;12.326;2022-08-03T02:57:42;8.25;;;5.43;;
15996;SDS011;8103;51.340;12.326;2022-08-03T03:00:12;9.27;;;6.55;;
15996;SDS011;8103;51.340;12.326;2022-08-03T03:02:44;6.45;;;5.78;;
15996;SDS011;8103;51.340;12.326;2022-08-03T03:05:11;6.55;;;4.47;;
15996;SDS011;8103;51.340;12.326;2022-08-03T03:08:00;6.85;;;4.85;;
15996;SDS011;8103;51.340;12.326;2022-08-03T03:10:27;12.55;;;5.97;;
15996;SDS011;8103;51.340;12.326;2022-08-03T03:12:56;9.13;;;6.00;;
15996;SDS011;8103;51.340;12.326;2022-08-03T03:15:24;6.65;;;4.68;;
15996;SDS011;8103;51.340;12.326;2022-08-03T03:17:52;9.15;;;4.75;;
15996;SDS011;8103;51.340;12.326;2022-08-03T03:20:20;4.70;;;4.13;;
15996;SDS011;8103;51.340;12.326;2022-08-03T03:22:55;6.25;;;4.78;;
15996;SDS011;8103;51.340;12.326;2022-08-03T03:25:24;8.43;;;4.72;;
15996;SDS011;8103;51.340;12.326;2022-08-03T03:27:52;4.88;;;4.40;;
15996;SDS011;8103;51.340;12.326;2022-08-03T03:30:19;6.43;;;4.25;;
15996;SDS011;8103;51.340;12.326;2022-08-03T03:32:46;4.72;;;4.13;;
15996;SDS011;8103;51.340;12.326;2022-08-03T03:35:13;4.85;;;4.45;;
15996;SDS011;8103;51.340;12.326;2022-08-03T03:37:41;7.18;;;4.93;;
15996;SDS011;8103;51.340;12.326;2022-08-03T03:40:09;4.88;;;4.30;;
15996;SDS011;8103;51.340;12.326;2022-08-03T03:42:36;4.93;;;4.40;;
15996;SDS011;8103;51.340;12.326;2022-08-03T03:45:05;4.97;;;4.47;;
15996;SDS011;8103;51.340;12.326;2022-08-03T03:47:34;6.30;;;4.15;;
15996;SDS011;8103;51.340;12.326;2022-08-03T03:50:02;5.03;;;4.00;;
15996;SDS011;8103;51.340;12.326;2022-08-03T03:52:31;6.57;;;4.00;;
15996;SDS011;8103;51.340;12.326;2022-08-03T03:54:58;5.65;;;4.78;;
15996;SDS011;8103;51.340;12.326;2022-08-03T03:57:27;5.40;;;3.90;;
15996;SDS011;8103;51.340;12.326;2022-08-03T03:59:54;3.95;;;3.38;;
15996;SDS011;8103;51.340;12.326;2022-08-03T04:02:21;4.22;;;3.83;;
15996;SDS011;8103;51.340;12.326;2022-08-03T04:04:48;5.22;;;4.30;;
15996;SDS011;8103;51.340;12.326;2022-08-03T04:13:56;7.55;;;4.85;;
15996;SDS011;8103;51.340;12.326;2022-08-03T04:16:29;4.57;;;4.13;;
15996;SDS011;8103;51.340;12.326;2022-08-03T04:19:01;4.68;;;4.20;;
15996;SDS011;8103;51.340;12.326;2022-08-03T04:21:33;8.90;;;4.32;;
15996;SDS011;8103;51.340;12.326;2022-08-03T04:24:03;7.50;;;4.60;;
15996;SDS011;8103;51.340;12.326;2022-08-03T04:26:36;5.57;;;3.72;;
15996;SDS011;8103;51.340;12.326;2022-08-03T04:29:05;7.43;;;4.80;;
15996;SDS011;8103;51.340;12.326;2022-08-03T04:31:34;4.05;;;3.75;;
15996;SDS011;8103;51.340;12.326;2022-08-03T04:34:03;5.28;;;4.65;;
15996;SDS011;8103;51.340;12.326;2022-08-03T04:36:31;5.60;;;4.40;;
15996;SDS011;8103;51.340;12.326;2022-08-03T04:39:09;7.13;;;5.07;;
15996;SDS011;8103;51.340;12.326;2022-08-03T04:41:39;5.60;;;4.28;;
15996;SDS011;8103;51.340;12.326;2022-08-03T04:44:27;7.30;;;4.70;;
15996;SDS011;8103;51.340;12.326;2022-08-03T04:46:56;7.30;;;4.00;;
15996;SDS011;8103;51.340;12.326;2022-08-03T04:49:24;4.70;;;4.15;;
15996;SDS011;8103;51.340;12.326;2022-08-03T04:51:52;4.38;;;3.40;;
15996;SDS011;8103;51.340;12.326;2022-08-03T04:54:20;8.98;;;4.78;;
15996;SDS011;8103;51.340;12.326;2022-08-03T04:56:47;4.93;;;4.10;;
15996;SDS011;8103;51.340;12.326;2022-08-03T04:59:13;6.28;;;4.07;;
15996;SDS011;8103;51.340;12.326;2022-08-03T05:01:42;5.88;;;3.83;;
15996;SDS011;8103;51.340;12.326;2022-08-03T05:04:09;4.35;;;3.08;;
15996;SDS011;8103;51.340;12.326;2022-08-03T05:06:36;8.80;;;4.97;;
15996;SDS011;8103;51.340;12.326;2022-08-03T05:09:05;6.18;;;3.38;;
15996;SDS011;8103;51.340;12.326;2022-08-03T05:11:32;9.02;;;4.75;;
15996;SDS011;8103;51.340;12.326;2022-08-03T05:13:59;6.70;;;3.72;;
15996;SDS011;8103;51.340;12.326;2022-08-03T05:16:26;12.35;;;3.85;;
15996;SDS011;8103;51.340;12.326;2022-08-03T05:18:53;5.97;;;3.95;;
15996;SDS011;8103;51.340;12.326;2022-08-03T05:21:19;7.38;;;3.50;;
15996;SDS011;8103;51.340;12.326;2022-08-03T05:23:46;8.65;;;4.50;;
15996;SDS011;8103;51.340;12.326;2022-08-03T05:26:13;9.07;;;5.40;;
15996;SDS011;8103;51.340;12.326;2022-08-03T05:28:40;5.15;;;4.60;;
15996;SDS011;8103;51.340;12.326;2022-08-03T05:31:13;7.45;;;4.55;;
15996;SDS011;8103;51.340;12.326;2022-08-03T05:33:40;5.55;;;3.95;;
15996;SDS011;8103;51.340;12.326;2022-08-03T05:36:08;9.73;;;4.55;;
15996;SDS011;8103;51.340;12.326;2022-08-03T05:38:35;6.90;;;4.43;;
15996;SDS011;8103;51.340;12.326;2022-08-03T05:41:03;5.43;;;3.70;;
15996;SDS011;8103;51.340;12.326;2022-08-03T05:43:45;10.25;;;4.50;;
15996;SDS011;8103;51.340;12.326;2022-08-03T05:46:12;7.40;;;3.67;;
15996;SDS011;8103;51.340;12.326;2022-08-03T05:48:40;12.10;;;3.95;;
15996;SDS011;8103;51.340;12.326;2022-08-03T05:51:07;7.75;;;4.03;;
15996;SDS011;8103;51.340;12.326;2022-08-03T05:53:41;5.40;;;3.90;;
15996;SDS011;8103;51.340;12.326;2022-08-03T05:56:08;6.65;;;3.35;;
15996;SDS011;8103;51.340;12.326;2022-08-03T05:58:39;5.57;;;3.47;;
15996;SDS011;8103;51.340;12.326;2022-08-03T06:01:07;6.38;;;3.33;;
15996;SDS011;8103;51.340;12.326;2022-08-03T06:03:34;9.68;;;3.65;;
15996;SDS011;8103;51.340;12.326;2022-08-03T06:06:01;4.20;;;2.90;;
15996;SDS011;8103;51.340;12.326;2022-08-03T06:08:27;7.10;;;3.60;;
15996;SDS011;8103;51.340;12.326;2022-08-03T06:10:54;9.07;;;4.03;;
15996;SDS011;8103;51.340;12.326;2022-08-03T06:13:21;3.80;;;2.78;;
15996;SDS011;8103;51.340;12.326;2022-08-03T06:15:48;6.20;;;2.70;;
15996;SDS011;8103;51.340;12.326;2022-08-03T06:18:15;8.20;;;2.70;;
15996;SDS011;8103;51.340;12.326;2022-08-03T06:20:42;6.18;;;2.80;;
15996;SDS011;8103;51.340;12.326;2022-08-03T06:23:09;6.63;;;3.05;;
15996;SDS011;8103;51.340;12.326;2022-08-03T06:25:37;5.97;;;2.55;;
15996;SDS011;8103;51.340;12.326;2022-08-03T06:28:04;4.93;;;2.45;;
15996;SDS011;8103;51.340;12.326;2022-08-03T06:30:32;10.63;;;3.17;;
15996;SDS011;8103;51.340;12.326;2022-08-03T06:32:59;6.70;;;3.22;;
15996;SDS011;8103;51.340;12.326;2022-08-03T06:35:26;5.05;;;2.65;;
15996;SDS011;8103;51.340;12.326;2022-08-03T06:37:53;3.47;;;2.30;;
15996;SDS011;8103;51.340;12.326;2022-08-03T06:40:20;10.70;;;3.70;;
15996;SDS011;8103;51.340;12.326;2022-08-03T06:42:54;8.05;;;3.20;;
15996;SDS011;8103;51.340;12.326;2022-08-03T06:45:22;7.22;;;2.67;;
15996;SDS011;8103;51.340;12.326;2022-08-03T06:48:03;4.35;;;2.45;;
15996;SDS011;8103;51.340;12.326;2022-08-03T06:50:32;3.55;;;2.97;;
15996;SDS011;8103;51.340;12.326;2022-08-03T06:53:00;3.78;;;2.03;;
15996;SDS011;8103;51.340;12.326;2022-08-03T06:55:27;6.15;;;2.60;;
15996;SDS011;8103;51.340;12.326;2022-08-03T06:57:58;7.80;;;2.40;;
15996;SDS011;8103;51.340;12.326;2022-08-03T07:00:26;5.63;;;2.33;;
15996;SDS011;8103;51.340;12.326;2022-08-03T07:02:54;6.80;;;2.05;;
15996;SDS011;8103;51.340;12.326;2022-08-03T07:05:24;5.07;;;2.42;;
15996;SDS011;8103;51.340;12.326;2022-08-03T07:07:55;5.93;;;1.73;;
15996;SDS011;8103;51.340;12.326;2022-08-03T07:10:23;3.80;;;2.05;;
15996;SDS011;8103;51.340;12.326;2022-08-03T07:12:51;3.33;;;2.05;;
15996;SDS011;8103;51.340;12.326;2022-08-03T07:15:21;7.25;;;2.63;;
15996;SDS011;8103;51.340;12.326;2022-08-03T07:18:03;3.83;;;2.65;;
15996;SDS011;8103;51.340;12.326;2022-08-03T07:20:30;3.70;;;2.00;;
15996;SDS011;8103;51.340;12.326;2022-08-03T07:22:58;3.80;;;2.13;;
15996;SDS011;8103;51.340;12.326;2022-08-03T07:25:25;2.83;;;2.08;;
15996;SDS011;8103;51.340;12.326;2022-08-03T07:27:52;4.22;;;1.77;;
15996;SDS011;8103;51.340;12.326;2022-08-03T07:30:19;3.13;;;1.88;;
15996;SDS011;8103;51.340;12.326;2022-08-03T07:32:46;4.22;;;1.88;;
15996;SDS011;8103;51.340;12.326;2022-08-03T07:35:14;2.13;;;1.77;;
15996;SDS011;8103;51.340;12.326;2022-08-03T07:37:50;4.55;;;2.15;;
15996;SDS011;8103;51.340;12.326;2022-08-03T07:40:19;3.83;;;1.83;;
15996;SDS011;8103;51.340;12.326;2022-08-03T07:42:47;5.10;;;2.08;;
15996;SDS011;8103;51.340;12.326;2022-08-03T07:45:17;3.55;;;1.95;;
15996;SDS011;8103;51.340;12.326;2022-08-03T07:47:45;5.88;;;2.15;;
15996;SDS011;8103;51.340;12.326;2022-08-03T07:50:18;2.03;;;1.40;;
15996;SDS011;8103;51.340;12.326;2022-08-03T07:52:46;3.22;;;2.00;;
15996;SDS011;8103;51.340;12.326;2022-08-03T07:55:13;4.35;;;1.90;;
15996;SDS011;8103;51.340;12.326;2022-08-03T07:57:40;3.42;;;2.20;;
15996;SDS011;8103;51.340;12.326;2022-08-03T08:00:12;4.75;;;1.80;;
15996;SDS011;8103;51.340;12.326;2022-08-03T08:02:44;2.97;;;2.13;;
15996;SDS011;8103;51.340;12.326;2022-08-03T08:05:11;5.57;;;1.60;;
15996;SDS011;8103;51.340;12.326;2022-08-03T08:07:39;2.08;;;1.98;;
15996;SDS011;8103;51.340;12.326;2022-08-03T08:10:07;6.07;;;2.20;;
15996;SDS011;8103;51.340;12.326;2022-08-03T08:12:35;6.03;;;2.33;;
15996;SDS011;8103;51.340;12.326;2022-08-03T08:15:04;9.88;;;2.00;;
15996;SDS011;8103;51.340;12.326;2022-08-03T08:17:51;3.67;;;1.90;;
15996;SDS011;8103;51.340;12.326;2022-08-03T08:20:26;6.55;;;2.30;;
15996;SDS011;8103;51.340;12.326;2022-08-03T08:22:56;3.67;;;1.88;;
15996;SDS011;8103;51.340;12.326;2022-08-03T08:25:30;6.38;;;4.43;;
15996;SDS011;8103;51.340;12.326;2022-08-03T08:27:57;6.47;;;2.45;;
15996;SDS011;8103;51.340;12.326;2022-08-03T08:30:47;2.28;;;1.77;;
15996;SDS011;8103;51.340;12.326;2022-08-03T08:33:15;4.47;;;1.88;;
15996;SDS011;8103;51.340;12.326;2022-08-03T08:35:48;3.83;;;2.05;;
15996;SDS011;8103;51.340;12.326;2022-08-03T08:38:16;2.50;;;1.88;;
15996;SDS011;8103;51.340;12.326;2022-08-03T08:40:47;3.08;;;2.13;;
15996;SDS011;8103;51.340;12.326;2022-08-03T08:43:16;1.95;;;1.73;;
15996;SDS011;8103;51.340;12.326;2022-08-03T08:45:43;5.30;;;2.00;;
15996;SDS011;8103;51.340;12.326;2022-08-03T08:48:11;2.17;;;1.63;;
15996;SDS011;8103;51.340;12.326;2022-08-03T08:50:39;5.50;;;1.73;;
15996;SDS011;8103;51.340;12.326;2022-08-03T08:53:06;3.65;;;1.55;;
15996;SDS011;8103;51.340;12.326;2022-08-03T08:55:45;3.60;;;1.98;;
15996;SDS011;8103;51.340;12.326;2022-08-03T08:58:23;7.30;;;1.92;;
15996;SDS011;8103;51.340;12.326;2022-08-03T09:00:54;2.22;;;1.67;;
15996;SDS011;8103;51.340;12.326;2022-08-03T09:03:21;6.95;;;1.77;;
15996;SDS011;8103;51.340;12.326;2022-08-03T09:05:54;2.50;;;2.00;;
15996;SDS011;8103;51.340;12.326;2022-08-03T09:08:21;3.85;;;1.70;;
15996;SDS011;8103;51.340;12.326;2022-08-03T09:10:48;3.97;;;1.80;;
15996;SDS011;8103;51.340;12.326;2022-08-03T09:13:16;2.83;;;1.70;;
15996;SDS011;8103;51.340;12.326;2022-08-03T09:15:43;2.05;;;1.92;;
15996;SDS011;8103;51.340;12.326;2022-08-03T09:18:27;1.40;;;1.30;;
15996;SDS011;8103;51.340;12.326;2022-08-03T09:21:11;3.30;;;1.70;;
15996;SDS011;8103;51.340;12.326;2022-08-03T09:23:57;1.98;;;1.38;;
15996;SDS011;8103;51.340;12.326;2022-08-03T09:26:28;4.30;;;1.88;;
15996;SDS011;8103;51.340;12.326;2022-08-03T09:28:57;1.83;;;1.52;;
15996;SDS011;8103;51.340;12.326;2022-08-03T09:31:31;4.03;;;1.52;;
15996;SDS011;8103;51.340;12.326;2022-08-03T09:34:00;6.63;;;1.80;;
15996;SDS011;8103;51.340;12.326;2022-08-03T09:39:03;1.92;;;1.25;;
15996;SDS011;8103;51.340;12.326;2022-08-03T09:41:37;1.63;;;1.33;;
15996;SDS011;8103;51.340;12.326;2022-08-03T09:44:05;1.90;;;1.45;;
15996;SDS011;8103;51.340;12.326;2022-08-03T09:49:19;1.40;;;1.23;;
15996;SDS011;8103;51.340;12.326;2022-08-03T09:51:48;2.38;;;1.55;;
15996;SDS011;8103;51.340;12.326;2022-08-03T09:54:38;1.50;;;1.27;;
15996;SDS011;8103;51.340;12.326;2022-08-03T09:57:06;2.03;;;1.73;;
15996;SDS011;8103;51.340;12.326;2022-08-03T09:59:34;1.35;;;1.15;;
15996;SDS011;8103;51.340;12.326;2022-08-03T10:02:01;2.70;;;1.48;;
15996;SDS011;8103;51.340;12.326;2022-08-03T10:04:28;2.17;;;1.50;;
15996;SDS011;8103;51.340;12.326;2022-08-03T10:07:02;1.83;;;1.40;;
15996;SDS011;8103;51.340;12.326;2022-08-03T10:09:32;2.47;;;1.45;;
15996;SDS011;8103;51.340;12.326;2022-08-03T10:12:11;2.95;;;1.67;;
15996;SDS011;8103;51.340;12.326;2022-08-03T10:14:45;1.75;;;1.20;;
15996;SDS011;8103;51.340;12.326;2022-08-03T10:17:13;2.38;;;1.30;;
15996;SDS011;8103;51.340;12.326;2022-08-03T10:19:41;2.78;;;1.42;;
15996;SDS011;8103;51.340;12.326;2022-08-03T10:22:09;2.25;;;1.40;;
15996;SDS011;8103;51.340;12.326;2022-08-03T10:24:42;1.55;;;1.40;;
15996;SDS011;8103;51.340;12.326;2022-08-03T10:27:21;6.20;;;2.00;;
15996;SDS011;8103;51.340;12.326;2022-08-03T10:29:54;4.38;;;1.85;;
15996;SDS011;8103;51.340;12.326;2022-08-03T10:32:27;2.40;;;1.23;;
15996;SDS011;8103;51.340;12.326;2022-08-03T10:34:58;7.10;;;1.45;;
15996;SDS011;8103;51.340;12.326;2022-08-03T10:37:44;2.63;;;1.60;;
15996;SDS011;8103;51.340;12.326;2022-08-03T10:40:25;2.63;;;1.40;;
15996;SDS011;8103;51.340;12.326;2022-08-03T10:43:21;1.73;;;1.40;;
15996;SDS011;8103;51.340;12.326;2022-08-03T10:45:52;2.33;;;1.90;;
15996;SDS011;8103;51.340;12.326;2022-08-03T10:48:21;1.48;;;1.25;;
15996;SDS011;8103;51.340;12.326;2022-08-03T10:50:49;3.03;;;2.13;;
15996;SDS011;8103;51.340;12.326;2022-08-03T10:53:32;2.35;;;1.38;;
15996;SDS011;8103;51.340;12.326;2022-08-03T10:56:04;2.35;;;1.40;;
15996;SDS011;8103;51.340;12.326;2022-08-03T10:59:00;1.52;;;1.40;;
15996;SDS011;8103;51.340;12.326;2022-08-03T11:02:14;1.55;;;1.00;;
15996;SDS011;8103;51.340;12.326;2022-08-03T11:04:24;2.22;;;1.60;;
15996;SDS011;8103;51.340;12.326;2022-08-03T11:09:52;1.50;;;1.40;;
15996;SDS011;8103;51.340;12.326;2022-08-03T11:12:21;2.63;;;1.30;;
15996;SDS011;8103;51.340;12.326;2022-08-03T11:14:54;1.27;;;1.17;;
15996;SDS011;8103;51.340;12.326;2022-08-03T11:17:22;2.67;;;1.48;;
15996;SDS011;8103;51.340;12.326;2022-08-03T11:19:52;1.60;;;1.50;;
15996;SDS011;8103;51.340;12.326;2022-08-03T11:22:21;4.90;;;1.40;;
15996;SDS011;8103;51.340;12.326;2022-08-03T11:27:20;2.88;;;1.23;;
15996;SDS011;8103;51.340;12.326;2022-08-03T11:35:16;1.48;;;1.38;;
15996;SDS011;8103;51.340;12.326;2022-08-03T11:43:53;2.35;;;1.30;;
15996;SDS011;8103;51.340;12.326;2022-08-03T11:46:00;1.48;;;1.30;;
15996;SDS011;8103;51.340;12.326;2022-08-03T11:48:37;1.80;;;1.50;;
15996;SDS011;8103;51.340;12.326;2022-08-03T11:51:06;1.38;;;1.27;;
15996;SDS011;8103;51.340;12.326;2022-08-03T11:53:45;1.50;;;1.40;;
15996;SDS011;8103;51.340;12.326;2022-08-03T11:56:13;1.10;;;1.10;;
15996;SDS011;8103;51.340;12.326;2022-08-03T11:58:46;1.35;;;1.25;;
15996;SDS011;8103;51.340;12.326;2022-08-03T12:01:26;3.60;;;1.60;;
15996;SDS011;8103;51.340;12.326;2022-08-03T12:03:54;1.40;;;1.30;;
15996;SDS011;8103;51.340;12.326;2022-08-03T12:06:21;2.13;;;1.08;;
15996;SDS011;8103;51.340;12.326;2022-08-03T12:08:48;1.60;;;1.40;;
15996;SDS011;8103;51.340;12.326;2022-08-03T12:11:16;3.38;;;2.10;;
15996;SDS011;8103;51.340;12.326;2022-08-03T12:13:46;2.33;;;1.60;;
15996;SDS011;8103;51.340;12.326;2022-08-03T12:16:23;1.40;;;1.30;;
15996;SDS011;8103;51.340;12.326;2022-08-03T12:18:57;2.08;;;1.85;;
15996;SDS011;8103;51.340;12.326;2022-08-03T12:21:25;1.42;;;1.33;;
15996;SDS011;8103;51.340;12.326;2022-08-03T12:24:00;4.00;;;1.20;;
15996;SDS011;8103;51.340;12.326;2022-08-03T12:26:29;2.65;;;1.50;;
15996;SDS011;8103;51.340;12.326;2022-08-03T12:29:15;3.03;;;1.25;;
15996;SDS011;8103;51.340;12.326;2022-08-03T12:31:43;1.45;;;1.30;;
15996;SDS011;8103;51.340;12.326;2022-08-03T12:34:10;4.80;;;1.35;;
15996;SDS011;8103;51.340;12.326;2022-08-03T12:36:48;2.95;;;1.40;;
15996;SDS011;8103;51.340;12.326;2022-08-03T12:39:17;3.72;;;1.40;;
15996;SDS011;8103;51.340;12.326;2022-08-03T12:41:51;2.85;;;1.50;;
15996;SDS011;8103;51.340;12.326;2022-08-03T12:44:30;1.48;;;1.25;;
15996;SDS011;8103;51.340;12.326;2022-08-03T12:47:00;1.27;;;1.17;;
15996;SDS011;8103;51.340;12.326;2022-08-03T12:52:21;3.05;;;1.55;;
15996;SDS011;8103;51.340;12.326;2022-08-03T12:54:55;1.40;;;1.30;;
15996;SDS011;8103;51.340;12.326;2022-08-03T12:57:23;2.90;;;1.30;;
15996;SDS011;8103;51.340;12.326;2022-08-03T12:59:51;1.67;;;1.58;;
15996;SDS011;8103;51.340;12.326;2022-08-03T13:02:21;7.60;;;1.83;;
15996;SDS011;8103;51.340;12.326;2022-08-03T13:04:51;2.22;;;1.70;;
15996;SDS011;8103;51.340;12.326;2022-08-03T13:07:19;1.48;;;1.35;;
15996;SDS011;8103;51.340;12.326;2022-08-03T13:09:48;1.58;;;1.30;;
15996;SDS011;8103;51.340;12.326;2022-08-03T13:12:20;1.83;;;1.67;;
15996;SDS011;8103;51.340;12.326;2022-08-03T13:14:49;1.52;;;1.40;;
15996;SDS011;8103;51.340;12.326;2022-08-03T13:17:26;2.10;;;1.70;;
15996;SDS011;8103;51.340;12.326;2022-08-03T13:19:53;1.70;;;1.38;;
15996;SDS011;8103;51.340;12.326;2022-08-03T13:22:25;3.17;;;1.70;;
15996;SDS011;8103;51.340;12.326;2022-08-03T13:24:54;2.67;;;1.42;;
15996;SDS011;8103;51.340;12.326;2022-08-03T13:27:23;2.03;;;1.67;;
15996;SDS011;8103;51.340;12.326;2022-08-03T13:30:10;1.70;;;1.60;;
15996;SDS011;8103;51.340;12.326;2022-08-03T13:32:38;3.08;;;1.77;;
15996;SDS011;8103;51.340;12.326;2022-08-03T13:35:05;2.03;;;1.38;;
15996;SDS011;8103;51.340;12.326;2022-08-03T13:37:32;2.15;;;1.20;;
15996;SDS011;8103;51.340;12.326;2022-08-03T13:40:00;2.60;;;2.40;;
15996;SDS011;8103;51.340;12.326;2022-08-03T13:42:31;2.53;;;1.67;;
15996;SDS011;8103;51.340;12.326;2022-08-03T13:45:00;1.55;;;1.40;;
15996;SDS011;8103;51.340;12.326;2022-08-03T13:47:27;2.30;;;1.58;;
15996;SDS011;8103;51.340;12.326;2022-08-03T13:49:55;3.03;;;1.02;;
15996;SDS011;8103;51.340;12.326;2022-08-03T13:52:25;1.70;;;1.30;;
15996;SDS011;8103;51.340;12.326;2022-08-03T13:54:53;2.22;;;1.58;;
15996;SDS011;8103;51.340;12.326;2022-08-03T13:57:20;3.92;;;2.38;;
15996;SDS011;8103;51.340;12.326;2022-08-03T14:00:08;4.75;;;1.52;;
15996;SDS011;8103;51.340;12.326;2022-08-03T14:02:35;2.13;;;1.55;;
15996;SDS011;8103;51.340;12.326;2022-08-03T14:05:03;3.55;;;1.27;;
15996;SDS011;8103;51.340;12.326;2022-08-03T14:07:33;3.22;;;1.80;;
15996;SDS011;8103;51.340;12.326;2022-08-03T14:10:00;2.72;;;1.75;;
15996;SDS011;8103;51.340;12.326;2022-08-03T14:12:27;1.65;;;1.50;;
15996;SDS011;8103;51.340;12.326;2022-08-03T14:14:54;2.42;;;1.50;;
15996;SDS011;8103;51.340;12.326;2022-08-03T14:17:24;1.92;;;1.65;;
15996;SDS011;8103;51.340;12.326;2022-08-03T14:19:51;3.28;;;1.60;;
15996;SDS011;8103;51.340;12.326;2022-08-03T14:22:19;1.40;;;1.30;;
15996;SDS011;8103;51.340;12.326;2022-08-03T14:24:46;5.93;;;2.03;;
15996;SDS011;8103;51.340;12.326;2022-08-03T14:27:15;2.25;;;1.48;;
15996;SDS011;8103;51.340;12.326;2022-08-03T14:29:42;3.25;;;1.33;;
15996;SDS011;8103;51.340;12.326;2022-08-03T14:32:09;4.50;;;1.70;;
15996;SDS011;8103;51.340;12.326;2022-08-03T14:34:38;2.28;;;1.73;;
15996;SDS011;8103;51.340;12.326;2022-08-03T14:37:06;2.95;;;1.40;;
15996;SDS011;8103;51.340;12.326;2022-08-03T14:39:33;3.67;;;2.00;;
15996;SDS011;8103;51.340;12.326;2022-08-03T14:42:20;1.90;;;1.67;;
15996;SDS011;8103;51.340;12.326;2022-08-03T14:44:47;1.70;;;1.50;;
15996;SDS011;8103;51.340;12.326;2022-08-03T14:47:14;2.72;;;1.15;;
15996;SDS011;8103;51.340;12.326;2022-08-03T14:49:42;3.85;;;3.55;;
15996;SDS011;8103;51.340;12.326;2022-08-03T14:52:29;2.40;;;2.20;;
15996;SDS011;8103;51.340;12.326;2022-08-03T14:54:56;1.50;;;1.40;;
15996;SDS011;8103;51.340;12.326;2022-08-03T14:57:24;3.20;;;2.47;;
15996;SDS011;8103;51.340;12.326;2022-08-03T14:59:52;3.58;;;2.55;;
15996;SDS011;8103;51.340;12.326;2022-08-03T15:02:23;3.22;;;1.77;;
15996;SDS011;8103;51.340;12.326;2022-08-03T15:04:50;1.20;;;1.10;;
15996;SDS011;8103;51.340;12.326;2022-08-03T15:07:17;4.95;;;1.38;;
15996;SDS011;8103;51.340;12.326;2022-08-03T15:09:45;2.88;;;1.30;;
15996;SDS011;8103;51.340;12.326;2022-08-03T15:12:13;2.05;;;1.00;;
15996;SDS011;8103;51.340;12.326;2022-08-03T15:14:40;1.88;;;1.42;;
15996;SDS011;8103;51.340;12.326;2022-08-03T15:17:06;1.60;;;1.23;;
15996;SDS011;8103;51.340;12.326;2022-08-03T15:19:34;2.13;;;1.35;;
15996;SDS011;8103;51.340;12.326;2022-08-03T15:22:21;1.45;;;1.20;;
15996;SDS011;8103;51.340;12.326;2022-08-03T15:24:50;1.38;;;1.27;;
15996;SDS011;8103;51.340;12.326;2022-08-03T15:27:17;1.30;;;1.20;;
15996;SDS011;8103;51.340;12.326;2022-08-03T15:29:44;1.20;;;1.02;;
15996;SDS011;8103;51.340;12.326;2022-08-03T15:32:33;1.30;;;1.20;;
15996;SDS011;8103;51.340;12.326;2022-08-03T15:34:59;2.05;;;1.50;;
15996;SDS011;8103;51.340;12.326;2022-08-03T15:37:26;2.50;;;1.48;;
15996;SDS011;8103;51.340;12.326;2022-08-03T15:39:55;5.93;;;2.92;;
15996;SDS011;8103;51.340;12.326;2022-08-03T15:42:23;3.55;;;2.78;;
15996;SDS011;8103;51.340;12.326;2022-08-03T15:44:51;2.20;;;2.00;;
15996;SDS011;8103;51.340;12.326;2022-08-03T15:47:17;1.95;;;1.77;;
15996;SDS011;8103;51.340;12.326;2022-08-03T15:49:45;3.22;;;1.60;;
15996;SDS011;8103;51.340;12.326;2022-08-03T15:52:11;3.22;;;1.98;;